createdAt,value
2022-09-23T00:01:09.871Z,100.00
2022-09-23T00:03:39.108Z,100.00
2022-09-23T00:06:07.962Z,100.00
2022-09-23T00:08:38.509Z,100.00
2022-09-23T00:11:07.735Z,100.00
2022-09-23T00:13:36.720Z,100.00
2022-09-23T00:16:08.279Z,100.00
2022-09-23T00:18:36.231Z,100.00
2022-09-23T00:21:05.714Z,100.00
2022-09-23T00:23:33.566Z,100.00
2022-09-23T00:26:02.667Z,100.00
2022-09-23T00:28:30.691Z,100.00
2022-09-23T00:31:02.263Z,100.00
2022-09-23T00:33:30.234Z,100.00
2022-09-23T00:36:01.783Z,100.00
2022-09-23T00:38:29.558Z,100.00
2022-09-23T00:40:58.665Z,100.00
2022-09-23T00:43:39.193Z,100.00
2022-09-23T00:46:08.895Z,100.00
2022-09-23T00:48:38.336Z,100.00
2022-09-23T00:51:08.027Z,100.00
2022-09-23T00:53:36.286Z,100.00
2022-09-23T00:56:04.803Z,100.00
2022-09-23T00:58:33.515Z,100.00
2022-09-23T01:01:02.269Z,100.00
2022-09-23T01:03:30.007Z,100.00
2022-09-23T01:05:58.046Z,100.00
2022-09-23T01:08:27.333Z,100.00
2022-09-23T01:10:54.857Z,100.00
2022-09-23T01:13:41.195Z,100.00
2022-09-23T01:16:15.311Z,100.00
2022-09-23T01:18:50.509Z,100.00
2022-09-23T01:21:28.407Z,100.00
2022-09-23T01:24:11.141Z,100.00
2022-09-23T01:26:51.077Z,100.00
2022-09-23T01:29:33.638Z,100.00
2022-09-23T01:32:25.541Z,100.00
2022-09-23T01:35:06.899Z,100.00
2022-09-23T01:37:42.000Z,100.00
2022-09-23T01:40:15.431Z,100.00
2022-09-23T01:42:47.480Z,100.00
2022-09-23T01:45:15.106Z,100.00
2022-09-23T01:47:45.276Z,100.00
2022-09-23T01:50:35.811Z,100.00
2022-09-23T01:53:06.670Z,100.00
2022-09-23T01:55:36.946Z,100.00
2022-09-23T01:58:12.429Z,100.00
2022-09-23T02:00:41.995Z,100.00
2022-09-23T02:03:15.522Z,100.00
2022-09-23T02:05:42.997Z,100.00
2022-09-23T02:08:22.479Z,100.00
2022-09-23T02:10:53.713Z,100.00
2022-09-23T02:13:24.893Z,100.00
2022-09-23T02:15:56.060Z,100.00
2022-09-23T02:18:29.567Z,100.00
2022-09-23T02:20:59.171Z,100.00
2022-09-23T02:23:41.314Z,100.00
2022-09-23T02:26:14.707Z,100.00
2022-09-23T02:28:51.048Z,100.00
2022-09-23T02:31:28.105Z,100.00
2022-09-23T02:34:00.874Z,100.00
2022-09-23T02:36:31.774Z,100.00
2022-09-23T02:39:02.134Z,100.00
2022-09-23T02:41:42.168Z,100.00
2022-09-23T02:44:11.941Z,100.00
2022-09-23T02:46:39.707Z,100.00
2022-09-23T02:49:16.046Z,100.00
2022-09-23T02:51:44.061Z,100.00
2022-09-23T02:54:17.579Z,100.00
2022-09-23T02:56:45.492Z,100.00
2022-09-23T02:59:13.273Z,100.00
2022-09-23T03:01:47.833Z,100.00
2022-09-23T03:04:31.843Z,100.00
2022-09-23T03:07:06.582Z,100.00
2022-09-23T03:09:39.022Z,100.00
2022-09-23T03:12:09.317Z,100.00
2022-09-23T03:14:45.415Z,100.00
2022-09-23T03:20:11.227Z,100.00
2022-09-23T03:22:43.604Z,100.00
2022-09-23T03:25:13.575Z,100.00
2022-09-23T03:27:42.745Z,100.00
2022-09-23T03:30:10.727Z,100.00
2022-09-23T03:32:38.718Z,100.00
2022-09-23T03:35:06.504Z,100.00
2022-09-23T03:37:36.083Z,100.00
2022-09-23T03:40:29.103Z,100.00
2022-09-23T03:42:57.713Z,100.00
2022-09-23T03:45:27.941Z,100.00
2022-09-23T03:47:55.621Z,100.00
2022-09-23T03:50:23.124Z,100.00
2022-09-23T03:52:51.086Z,100.00
2022-09-23T03:55:19.532Z,100.00
2022-09-23T03:57:47.449Z,100.00
2022-09-23T04:00:15.804Z,100.00
2022-09-23T04:02:44.425Z,100.00
2022-09-23T04:05:12.536Z,100.00
2022-09-23T04:07:42.858Z,100.00
2022-09-23T04:10:10.834Z,100.00
2022-09-23T04:12:38.663Z,100.00
2022-09-23T04:15:06.616Z,100.00
2022-09-23T04:17:34.653Z,100.00
2022-09-23T04:20:02.439Z,100.00
2022-09-23T04:22:30.194Z,100.00
2022-09-23T04:24:58.139Z,100.00
2022-09-23T04:27:25.717Z,100.00
2022-09-23T04:29:53.428Z,100.00
2022-09-23T04:32:22.221Z,100.00
2022-09-23T04:34:49.713Z,100.00
2022-09-23T04:37:17.164Z,100.00
2022-09-23T04:39:44.994Z,100.00
2022-09-23T04:42:12.489Z,100.00
2022-09-23T04:44:40.031Z,100.00
2022-09-23T04:47:07.902Z,100.00
2022-09-23T04:49:35.546Z,100.00
2022-09-23T04:52:03.090Z,100.00
2022-09-23T04:54:30.942Z,100.00
2022-09-23T04:56:58.421Z,100.00
2022-09-23T04:59:25.963Z,100.00
2022-09-23T05:01:54.811Z,99.98
2022-09-23T05:04:23.136Z,99.73
2022-09-23T05:06:50.670Z,100.00
2022-09-23T05:09:18.658Z,90.91
2022-09-23T05:11:46.291Z,94.90
2022-09-23T05:14:13.781Z,89.12
2022-09-23T05:16:41.779Z,88.64
2022-09-23T05:19:09.268Z,89.76
2022-09-23T05:21:38.093Z,85.68
2022-09-23T05:24:09.032Z,95.75
2022-09-23T05:26:36.525Z,93.30
2022-09-23T05:29:04.175Z,99.02
2022-09-23T05:31:32.355Z,100.00
2022-09-23T05:34:03.161Z,91.54
2022-09-23T05:36:35.725Z,85.73
2022-09-23T05:39:06.443Z,87.54
2022-09-23T05:41:34.229Z,85.46
2022-09-23T05:44:02.036Z,82.70
2022-09-23T05:46:30.921Z,76.45
2022-09-23T05:49:02.531Z,80.73
2022-09-23T05:51:35.039Z,83.04
2022-09-23T05:54:05.876Z,81.25
2022-09-23T05:56:34.230Z,84.65
2022-09-23T05:59:02.746Z,75.53
2022-09-23T06:01:34.190Z,74.06
2022-09-23T06:04:03.421Z,73.04
2022-09-23T06:06:32.207Z,75.46
2022-09-23T06:09:00.516Z,69.26
2022-09-23T06:11:32.267Z,67.72
2022-09-23T06:14:01.381Z,66.46
2022-09-23T06:16:30.629Z,67.22
2022-09-23T06:19:03.050Z,70.93
2022-09-23T06:21:33.851Z,69.14
2022-09-23T06:24:01.491Z,70.40
2022-09-23T06:26:34.102Z,68.16
2022-09-23T06:29:03.035Z,74.64
2022-09-23T06:31:30.719Z,73.32
2022-09-23T06:34:09.907Z,70.81
2022-09-23T06:36:43.951Z,76.29
2022-09-23T06:39:12.988Z,79.09
2022-09-23T06:41:40.809Z,80.54
2022-09-23T06:44:11.380Z,79.59
2022-09-23T06:46:38.978Z,78.09
2022-09-23T06:49:06.924Z,77.54
2022-09-23T06:51:34.778Z,73.48
2022-09-23T06:54:02.355Z,73.22
2022-09-23T06:56:34.690Z,71.04
2022-09-23T06:59:05.825Z,71.09
2022-09-23T07:01:34.766Z,70.67
2022-09-23T07:04:02.386Z,73.44
2022-09-23T07:06:29.914Z,74.08
2022-09-23T07:08:57.796Z,70.35
2022-09-23T07:11:25.238Z,69.28
2022-09-23T07:13:52.743Z,69.66
2022-09-23T07:16:21.592Z,70.42
2022-09-23T07:18:49.080Z,71.57
2022-09-23T07:21:17.708Z,70.68
2022-09-23T07:23:46.568Z,70.62
2022-09-23T07:26:14.923Z,70.91
2022-09-23T07:28:42.898Z,71.23
2022-09-23T07:31:15.520Z,70.25
2022-09-23T07:33:44.491Z,71.52
2022-09-23T07:36:14.264Z,70.62
2022-09-23T07:38:45.408Z,69.62
2022-09-23T07:41:15.224Z,72.17
2022-09-23T07:43:44.376Z,69.93
2022-09-23T07:46:15.377Z,67.72
2022-09-23T07:48:43.659Z,66.98
2022-09-23T07:51:13.407Z,67.36
2022-09-23T07:53:40.840Z,73.34
2022-09-23T07:56:08.685Z,70.10
2022-09-23T07:58:36.238Z,65.19
2022-09-23T08:01:08.203Z,66.61
2022-09-23T08:03:36.533Z,67.35
2022-09-23T08:06:11.453Z,70.95
2022-09-23T08:08:43.767Z,68.20
2022-09-23T08:11:12.718Z,68.00
2022-09-23T08:13:40.896Z,69.17
2022-09-23T08:16:08.659Z,66.14
2022-09-23T08:18:36.189Z,67.55
2022-09-23T08:21:04.189Z,66.93
2022-09-23T08:23:34.440Z,65.90
2022-09-23T08:26:03.402Z,65.23
2022-09-23T08:28:33.475Z,65.06
2022-09-23T08:31:01.104Z,63.50
2022-09-23T08:33:28.718Z,64.19
2022-09-23T08:36:00.379Z,64.29
2022-09-23T08:38:28.240Z,65.20
2022-09-23T08:41:03.826Z,64.69
2022-09-23T08:43:33.086Z,64.37
2022-09-23T08:46:03.170Z,67.36
2022-09-23T08:48:44.245Z,67.11
2022-09-23T08:51:16.441Z,63.02
2022-09-23T08:53:45.873Z,63.00
2022-09-23T08:56:15.276Z,70.21
2022-09-23T08:59:03.570Z,66.12
2022-09-23T09:01:49.568Z,67.76
2022-09-23T09:04:17.012Z,60.39
2022-09-23T09:06:53.637Z,60.39
2022-09-23T09:09:24.594Z,59.34
2022-09-23T09:11:58.363Z,62.38
2022-09-23T09:14:30.381Z,63.55
2022-09-23T09:17:01.523Z,61.16
2022-09-23T09:19:35.163Z,61.24
2022-09-23T09:22:07.520Z,61.75
2022-09-23T09:24:35.574Z,63.01
2022-09-23T09:27:11.755Z,63.84
2022-09-23T09:29:52.015Z,64.15
2022-09-23T09:32:29.747Z,64.14
2022-09-23T09:35:01.388Z,64.35
2022-09-23T09:37:33.961Z,63.61
2022-09-23T09:40:02.377Z,64.17
2022-09-23T09:42:39.372Z,66.66
2022-09-23T09:45:13.373Z,68.37
2022-09-23T09:47:41.364Z,70.40
2022-09-23T09:50:10.954Z,68.10
2022-09-23T09:52:43.557Z,64.37
2022-09-23T09:55:14.129Z,67.27
2022-09-23T09:57:53.981Z,68.28
2022-09-23T10:00:21.861Z,69.23
2022-09-23T10:02:53.350Z,69.77
2022-09-23T10:05:26.291Z,69.16
2022-09-23T10:07:54.910Z,71.40
2022-09-23T10:10:33.410Z,67.09
2022-09-23T10:13:15.385Z,67.33
2022-09-23T10:15:45.016Z,66.38
2022-09-23T10:18:19.798Z,65.62
2022-09-23T10:20:48.390Z,64.80
2022-09-23T10:23:18.191Z,64.13
2022-09-23T10:25:55.923Z,66.81
2022-09-23T10:28:38.984Z,64.09
2022-09-23T10:31:13.638Z,66.25
2022-09-23T10:33:49.470Z,65.04
2022-09-23T10:36:18.110Z,65.43
2022-09-23T10:38:55.686Z,63.07
2022-09-23T10:41:53.471Z,69.40
2022-09-23T10:45:03.085Z,64.68
2022-09-23T10:47:37.328Z,65.09
2022-09-23T10:50:17.262Z,65.05
2022-09-23T10:52:44.755Z,62.59
2022-09-23T10:55:12.577Z,62.40
2022-09-23T10:57:46.378Z,61.84
2022-09-23T11:00:22.628Z,62.97
2022-09-23T11:03:09.728Z,64.38
2022-09-23T11:05:37.495Z,59.91
2022-09-23T11:08:23.673Z,60.13
2022-09-23T11:11:17.644Z,59.45
2022-09-23T11:17:06.048Z,60.98
2022-09-23T11:19:45.558Z,59.38
2022-09-23T11:22:37.674Z,60.26
2022-09-23T11:25:28.371Z,59.72
2022-09-23T11:28:09.119Z,59.41
2022-09-23T11:30:51.747Z,58.44
2022-09-23T11:33:39.896Z,58.11
2022-09-23T11:36:33.661Z,59.34
2022-09-23T11:39:06.445Z,58.72
2022-09-23T11:41:37.404Z,60.37
2022-09-23T11:44:05.275Z,68.81
2022-09-23T11:46:38.579Z,61.01
2022-09-23T11:49:16.248Z,61.57
2022-09-23T11:51:52.797Z,58.23
2022-09-23T11:54:31.199Z,62.43
2022-09-23T11:57:00.621Z,60.41
2022-09-23T11:59:40.963Z,59.50
2022-09-23T12:02:30.740Z,60.18
2022-09-23T12:05:03.073Z,61.28
2022-09-23T12:07:42.222Z,60.57
2022-09-23T12:10:11.093Z,61.66
2022-09-23T12:12:41.376Z,61.79
2022-09-23T12:15:18.139Z,62.74
2022-09-23T12:18:04.831Z,63.06
2022-09-23T12:20:58.224Z,63.82
2022-09-23T12:23:26.297Z,63.60
2022-09-23T12:25:57.423Z,63.76
2022-09-23T12:28:30.649Z,64.46
2022-09-23T12:30:59.652Z,65.19
2022-09-23T12:33:32.728Z,66.63
2022-09-23T12:36:05.764Z,64.58
2022-09-23T12:38:53.671Z,63.56
2022-09-23T12:41:37.268Z,64.14
2022-09-23T12:44:11.368Z,64.44
2022-09-23T12:46:40.298Z,65.25
2022-09-23T12:49:36.811Z,65.94
2022-09-23T12:52:10.809Z,67.15
2022-09-23T12:54:42.307Z,64.23
2022-09-23T12:57:10.088Z,66.53
2022-09-23T12:59:54.755Z,64.65
2022-09-23T13:02:38.497Z,63.78
2022-09-23T13:05:47.448Z,61.56
2022-09-23T13:08:17.256Z,60.32
2022-09-23T13:10:55.733Z,57.60
2022-09-23T13:13:23.764Z,55.60
2022-09-23T13:15:52.296Z,57.21
2022-09-23T13:18:20.628Z,56.10
2022-09-23T13:20:49.198Z,57.43
2022-09-23T13:23:31.537Z,58.10
2022-09-23T13:26:09.615Z,58.46
2022-09-23T13:28:43.880Z,57.10
2022-09-23T13:31:16.525Z,57.83
2022-09-23T13:33:49.402Z,55.98
2022-09-23T13:36:18.258Z,56.01
2022-09-23T13:38:49.462Z,55.95
2022-09-23T13:41:21.640Z,57.69
2022-09-23T13:43:58.901Z,59.46
2022-09-23T13:46:28.515Z,61.43
2022-09-23T13:48:56.788Z,63.79
2022-09-23T13:51:30.349Z,65.20
2022-09-23T13:53:59.667Z,65.27
2022-09-23T13:56:29.084Z,66.33
2022-09-23T13:59:15.146Z,67.44
2022-09-23T14:01:42.999Z,67.54
2022-09-23T14:04:23.552Z,68.22
2022-09-23T14:06:51.218Z,68.93
2022-09-23T14:09:20.628Z,69.30
2022-09-23T14:11:50.095Z,69.34
2022-09-23T14:14:17.956Z,68.77
2022-09-23T14:16:45.848Z,69.44
2022-09-23T14:19:17.841Z,70.60
2022-09-23T14:21:49.490Z,71.13
2022-09-23T14:24:18.824Z,71.06
2022-09-23T14:26:48.000Z,71.66
2022-09-23T14:29:24.886Z,69.73
2022-09-23T14:32:00.465Z,71.21
2022-09-23T14:34:48.668Z,72.01
2022-09-23T14:37:41.186Z,73.58
2022-09-23T14:40:14.058Z,72.25
2022-09-23T14:42:52.454Z,72.70
2022-09-23T14:45:22.184Z,71.74
2022-09-23T14:47:52.136Z,72.38
2022-09-23T14:50:37.277Z,73.82
2022-09-23T14:53:25.402Z,73.69
2022-09-23T14:55:59.958Z,74.27
2022-09-23T14:58:28.923Z,74.67
2022-09-23T15:00:57.822Z,75.10
2022-09-23T15:03:25.672Z,75.17
2022-09-23T15:05:58.273Z,73.63
2022-09-23T15:08:27.954Z,73.63
2022-09-23T15:10:59.199Z,73.91
2022-09-23T15:13:34.259Z,73.79
2022-09-23T15:16:02.220Z,75.60
2022-09-23T15:18:35.195Z,76.49
2022-09-23T15:21:08.772Z,76.93
2022-09-23T15:23:48.365Z,77.03
2022-09-23T15:26:17.932Z,78.51
2022-09-23T15:28:45.859Z,79.33
2022-09-23T15:31:15.355Z,79.87
2022-09-23T15:33:48.013Z,79.99
2022-09-23T15:36:17.718Z,80.41
2022-09-23T15:38:46.427Z,80.75
2022-09-23T15:41:17.935Z,81.61
2022-09-23T15:43:47.097Z,82.34
2022-09-23T15:46:17.671Z,83.22
2022-09-23T15:48:58.479Z,83.42
2022-09-23T15:51:27.374Z,84.30
2022-09-23T15:56:42.922Z,84.26
2022-09-23T15:59:11.113Z,84.35
2022-09-23T16:01:39.092Z,84.43
2022-09-23T16:04:07.028Z,84.46
2022-09-23T16:06:36.306Z,83.10
2022-09-23T16:09:04.092Z,83.12
2022-09-23T16:11:32.246Z,84.35
2022-09-23T16:14:01.007Z,84.94
2022-09-23T16:16:28.632Z,85.83
2022-09-23T16:18:56.480Z,86.87
2022-09-23T16:21:28.330Z,87.51
2022-09-23T16:23:57.553Z,87.62
2022-09-23T16:26:33.049Z,87.43
2022-09-23T16:29:01.578Z,87.98
2022-09-23T16:31:32.039Z,87.85
2022-09-23T16:34:02.771Z,87.36
2022-09-23T16:36:32.367Z,87.96
2022-09-23T16:39:00.721Z,87.40
2022-09-23T16:41:31.922Z,87.14
2022-09-23T16:44:04.787Z,86.99
2022-09-23T16:46:33.297Z,86.76
2022-09-23T16:49:01.460Z,87.59
2022-09-23T16:51:30.333Z,87.48
2022-09-23T16:53:58.498Z,87.88
2022-09-23T16:56:28.940Z,88.02
2022-09-23T16:58:57.221Z,88.34
2022-09-23T17:01:44.887Z,88.59
2022-09-23T17:04:13.068Z,88.58
2022-09-23T17:06:44.377Z,88.55
2022-09-23T17:09:12.525Z,88.62
2022-09-23T17:11:40.551Z,88.93
2022-09-23T17:14:08.033Z,88.75
2022-09-23T17:16:35.625Z,89.07
2022-09-23T17:19:08.222Z,89.15
2022-09-23T17:21:35.975Z,88.91
2022-09-23T17:24:04.125Z,88.27
2022-09-23T17:26:31.655Z,89.03
2022-09-23T17:28:59.913Z,89.59
2022-09-23T17:31:28.312Z,90.15
2022-09-23T17:33:55.915Z,89.92
2022-09-23T17:36:23.559Z,88.67
2022-09-23T17:38:54.262Z,89.90
2022-09-23T17:41:22.116Z,89.82
2022-09-23T17:43:54.185Z,90.39
2022-09-23T17:46:22.080Z,90.64
2022-09-23T17:48:52.499Z,91.77
2022-09-23T17:51:20.140Z,92.46
2022-09-23T17:53:48.479Z,92.86
2022-09-23T17:56:20.130Z,93.56
2022-09-23T17:58:48.889Z,93.73
2022-09-23T18:01:18.693Z,94.34
2022-09-23T18:03:47.593Z,94.13
2022-09-23T18:06:19.095Z,94.56
2022-09-23T18:08:47.848Z,94.96
2022-09-23T18:11:17.170Z,94.86
2022-09-23T18:13:49.397Z,95.09
2022-09-23T18:16:17.481Z,95.28
2022-09-23T18:18:45.144Z,94.97
2022-09-23T18:21:12.628Z,94.78
2022-09-23T18:23:40.516Z,94.68
2022-09-23T18:26:15.113Z,94.92
2022-09-23T18:28:43.894Z,94.33
2022-09-23T18:31:11.818Z,93.53
2022-09-23T18:33:39.526Z,93.41
2022-09-23T18:36:08.034Z,93.23
2022-09-23T18:38:35.681Z,93.56
2022-09-23T18:41:03.283Z,93.34
2022-09-23T18:43:40.736Z,92.34
2022-09-23T18:46:15.629Z,92.95
2022-09-23T18:49:02.158Z,92.50
2022-09-23T18:51:30.537Z,92.56
2022-09-23T18:53:59.912Z,92.85
2022-09-23T18:56:37.504Z,92.82
2022-09-23T18:59:06.741Z,91.82
2022-09-23T19:01:34.456Z,92.21
2022-09-23T19:04:02.611Z,92.71
2022-09-23T19:06:35.201Z,92.20
2022-09-23T19:09:05.572Z,92.77
2022-09-23T19:11:36.665Z,93.08
2022-09-23T19:14:06.381Z,93.35
2022-09-23T19:16:35.241Z,91.71
2022-09-23T19:19:04.689Z,92.73
2022-09-23T19:21:33.056Z,92.86
2022-09-23T19:24:04.089Z,93.35
2022-09-23T19:26:33.193Z,93.26
2022-09-23T19:29:01.573Z,92.71
2022-09-23T19:31:33.754Z,93.64
2022-09-23T19:34:10.989Z,93.40
2022-09-23T19:36:40.214Z,93.33
2022-09-23T19:39:09.271Z,94.02
2022-09-23T19:41:36.833Z,93.55
2022-09-23T19:44:07.874Z,94.05
2022-09-23T19:46:41.022Z,94.32
2022-09-23T19:49:08.786Z,94.45
2022-09-23T19:51:36.910Z,94.65
2022-09-23T19:54:05.546Z,94.80
2022-09-23T19:56:33.436Z,95.43
2022-09-23T19:59:03.275Z,95.22
2022-09-23T20:01:32.158Z,95.69
2022-09-23T20:04:00.424Z,95.45
2022-09-23T20:06:31.910Z,96.26
2022-09-23T20:09:01.125Z,96.38
2022-09-23T20:11:29.238Z,96.23
2022-09-23T20:14:06.537Z,96.65
2022-09-23T20:16:35.566Z,96.84
2022-09-23T20:19:04.587Z,97.30
2022-09-23T20:21:32.269Z,97.86
2022-09-23T20:24:00.325Z,98.01
2022-09-23T20:26:46.173Z,98.56
2022-09-23T20:29:14.074Z,97.74
2022-09-23T20:31:41.797Z,99.28
2022-09-23T20:34:10.978Z,100.00
2022-09-23T20:36:41.287Z,100.00
2022-09-23T20:39:09.942Z,100.00
2022-09-23T20:41:38.636Z,100.00
2022-09-23T20:44:08.088Z,100.00
2022-09-23T20:46:36.074Z,100.00
2022-09-23T20:49:04.609Z,100.00
2022-09-23T20:51:33.599Z,100.00
2022-09-23T20:54:01.245Z,100.00
2022-09-23T20:56:29.355Z,100.00
2022-09-23T20:59:04.567Z,100.00
2022-09-23T21:01:38.499Z,100.00
2022-09-23T21:04:07.905Z,100.00
2022-09-23T21:06:36.888Z,100.00
2022-09-23T21:09:04.986Z,100.00
2022-09-23T21:11:32.877Z,100.00
2022-09-23T21:14:01.711Z,100.00
2022-09-23T21:16:29.570Z,100.00
2022-09-23T21:18:58.055Z,100.00
2022-09-23T21:21:25.717Z,100.00
2022-09-23T21:23:53.175Z,100.00
2022-09-23T21:26:21.890Z,100.00
2022-09-23T21:28:50.765Z,100.00
2022-09-23T21:31:26.085Z,100.00
2022-09-23T21:34:01.563Z,100.00
2022-09-23T21:36:30.228Z,100.00
2022-09-23T21:38:58.393Z,100.00
2022-09-23T21:41:25.870Z,100.00
2022-09-23T21:43:53.386Z,100.00
2022-09-23T21:46:21.737Z,100.00
2022-09-23T21:48:53.126Z,100.00
2022-09-23T21:51:25.720Z,100.00
2022-09-23T21:53:54.972Z,100.00
2022-09-23T21:56:23.928Z,100.00
2022-09-23T21:58:52.456Z,100.00
2022-09-23T22:01:21.023Z,100.00
2022-09-23T22:03:51.170Z,100.00
2022-09-23T22:06:21.788Z,100.00
2022-09-23T22:08:50.779Z,100.00
2022-09-23T22:11:41.426Z,100.00
2022-09-23T22:14:10.694Z,100.00
2022-09-23T22:16:39.314Z,100.00
2022-09-23T22:19:07.392Z,100.00
2022-09-23T22:21:36.853Z,100.00
2022-09-23T22:24:04.972Z,100.00
2022-09-23T22:26:33.620Z,100.00
2022-09-23T22:29:19.683Z,100.00
2022-09-23T22:32:05.527Z,100.00
2022-09-23T22:34:49.041Z,100.00
2022-09-23T22:37:18.994Z,100.00
2022-09-23T22:39:46.944Z,100.00
2022-09-23T22:42:14.652Z,100.00
2022-09-23T22:44:42.503Z,100.00
2022-09-23T22:47:10.948Z,100.00
2022-09-23T22:49:38.423Z,100.00
2022-09-23T22:52:09.413Z,100.00
2022-09-23T22:54:37.404Z,100.00
2022-09-23T22:57:05.491Z,100.00
2022-09-23T22:59:33.146Z,100.00
2022-09-23T23:02:02.581Z,100.00
2022-09-23T23:04:30.759Z,100.00
2022-09-23T23:06:59.088Z,100.00
2022-09-23T23:09:26.992Z,100.00
2022-09-23T23:11:54.467Z,100.00
2022-09-23T23:14:21.933Z,100.00
2022-09-23T23:16:49.861Z,100.00
2022-09-23T23:19:17.729Z,100.00
2022-09-23T23:21:45.764Z,100.00
2022-09-23T23:24:17.737Z,100.00
2022-09-23T23:26:45.700Z,100.00
2022-09-23T23:29:14.262Z,100.00
2022-09-23T23:34:29.653Z,100.00
2022-09-23T23:36:57.478Z,100.00
2022-09-23T23:39:25.521Z,100.00
2022-09-23T23:41:55.178Z,100.00
2022-09-23T23:44:24.095Z,100.00
2022-09-23T23:46:52.036Z,100.00
2022-09-23T23:49:19.883Z,100.00
2022-09-23T23:51:48.121Z,100.00
2022-09-23T23:54:15.725Z,100.00
2022-09-23T23:56:43.255Z,100.00
2022-09-23T23:59:11.635Z,100.00
